Relevés horaires Laegern (Suisse)


Relevés horaires à Laegern - Jeudi 18 Févr. 2021
Heure UTC1 Température [°C] Vent [km/h] Hum. [%] Pres.4 [hPa] Visi. [Km] Nébu. [octa] Préc.5 [mm] Cond.
2m. Res. Ros. Dir.2 Vit. Moy. Raf.3
23:00 6.0 6.0 3.7 O 0.0 -- 46.3 85 850(2.6/3h) -- -- -- --
22:00 6.7 6.7 1.6 O 0.0 -- 51.9 70 850(2.1/3h) -- -- -- --
21:00 6.6 6.6 2.3 SSO 0.0 -- 72.2 74 850(1.5/3h) -- -- -- --
20:00 5.8 5.8 1.3 SSO 0.0 -- 70.4 73 850(0.3/3h) -- -- -- --
19:00 5.9 5.9 -0.4 SSO 0.0 -- 51.9 64 850(0.0/3h) -- -- -- --
18:00 7.1 7.1 -1.8 SSO 0.0 -- 29.6 53 850(-0.9/3h) -- -- -- --
17:00 6.8 6.8 -1.4 SSO 0.0 -- 29.6 56 850(-1.3/3h) -- -- -- --
16:00 6.6 6.6 -1.3 S 0.0 -- 27.8 57 850(-1.4/3h) -- -- -- --
15:00 6.6 6.6 -1.5 SSO 0.0 -- 29.6 56 850(-1.5/3h) -- -- -- --
14:00 5.9 5.9 -0.8 S 0.0 -- 29.6 62 850(-0.9/3h) -- -- -- --
13:00 6.0 6.0 -1.2 S 0.0 -- 29.6 60 850(-0.5/3h) -- -- -- --
12:00 5.3 5.3 -0.7 SO 0.0 -- 25.9 65 850(-0.3/3h) -- -- -- --
11:00 4.9 4.9 0.5 S 0.0 -- 20.4 73 850(-0.7/3h) -- -- -- --
10:00 4.3 4.3 0.1 S 0.0 -- 24.1 74 850(-0.6/3h) -- -- -- --
09:00 3.3 3.3 0.5 S 0.0 -- 25.9 82 850(-0.6/3h) -- -- -- --
08:00 2.0 2.0 1.3 S 0.0 -- 22.2 95 850(-0.5/3h) -- -- -- --
07:00 2.6 2.6 0.5 SSO 0.0 -- 25.9 86 850(-0.5/3h) -- -- -- --
06:00 2.4 2.4 2.3 S 0.0 -- 27.8 99 850(-0.6/3h) -- -- -- --
05:00 3.9 3.9 0.2 S 0.0 -- 18.5 77 850(-0.6/3h) -- -- -- --
04:00 3.8 3.8 0.8 S 0.0 -- 25.9 81 850(-0.8/3h) -- -- -- --
03:00 2.7 2.7 -1.1 SE 0.0 -- 27.8 76 850(-0.9/3h) -- -- -- --
02:00 4.1 4.1 -0.5 ESE 0.0 -- 27.8 72 850(-1.4/3h) -- -- -- --
01:00 4.3 4.3 1.2 SSE 0.0 -- 18.5 80 850(-1.4/3h) -- -- -- --
00:00 5.1 5.1 1.2 SSE 0.0 -- 24.1 76 850(-1.4/3h) -- -- -- --

1 Coordinated Universal Time. Actuellement il est 13:00 locale et 11:00 UTC.

2 Le vent souffle depuis la direction indiquée vers la direction oposée.

3 Les rafales max. sont disponible 40 min après l'heure du relevé.

4 Pour les stations d'altitude (plus de 600m) le géopotentiel du niveau le plus proche de la pression obligatoire est indiqué.

5 Les stations disposant d'un diffuseur peuvent indiquer "trace". Cela signifie que des précipitations ont touchés le sol mais que la quantité est inférieure à 0.1 mm.

Copyright

Les données affichées sur cette page sont la propriété exclusive de Météo Suisse.

Récapitulatif de la journée
Température [°C] Vent [km/h] Ensoleillement4 [h] Precipitations totale5 [mm] Pression [Hpa]
Min1 Max.2 Moy.3 Max. Min Max.
2.7 7.2 0 72.2 4 h 42 min 0 850.0 850.0

1 Température minimale relevée entre 18:00 UTC la veille et 18:00 UTC le jour donné.

2 Température maximale relevée entre 06:00 UTC le jour donné et 06:00 UTC le lendemain.

3 Vent moyen de la journée basé sur les relevés horaires.

4 Ensoleillement en heures relevé entre 06:00 UTC la veille et 06:00 UTC le jour donné.

5 Précipitations totales tombées entre 06:00 UTC la jour donné et 06:00 UTC le lendemain.

Graphiques horaires